Napakiak, Alaska
Current Conditions -  °F | °C
As of 10:56 AM on Wednesday 28 Jan 2015 (Local Time) from PANA Reporting Station
Scattered Clouds Scattered Clouds  
Wind Chill: -23°   Ceiling: Unl
Heat Index: -3°   Visibility: 10mi
Dew Point: -9°   Wind: 15mph
Humidity: 75%   Direction: 20°NNE
Pressure: 30.16"   Gusts: 23mph
Location:  60.7°N, 161.95°W
Report Text: PANA 281956Z AUTO 02013G20KT 10SM SCT075 M19/M23 A3016 RMK AO2 SLP212 T11941228 FZRANO
Loading
Personal Weather Stations






























Interactive Weather Map New forecast layout! Learn more

10-Day Weather Forecast

Advertisements
Track Severe Weather on mobile